Bowmansville, New York
Current Conditions -  °F | °C
As of 1:54 AM on Sunday 21 Dec 2014 (Local Time) from KBUF Reporting Station
Overcast Overcast  
Wind Chill: 29°   Ceiling: 2500
Heat Index: 29°   Visibility: 10mi
Dew Point: 24°   Wind: 0mph
Humidity: 82%   Direction: NA
Pressure: 30.25"   Gusts: NA
Location:  42.94°N, 78.68°W
Report Text: KBUF 210654Z 00000KT 10SM OVC025 M02/M04 A3025 RMK AO2 SLP253 T10171044
Loading
Personal Weather Stations






























Interactive Weather Map New forecast layout! Learn more

10-Day Weather Forecast

Advertisements
Track Severe Weather on mobile